createdAt,value
2022-11-21T00:00:23.885Z,996.45
2022-11-21T00:01:23.852Z,996.36
2022-11-21T00:02:23.890Z,996.38
2022-11-21T00:03:23.775Z,996.31
2022-11-21T00:04:23.738Z,996.39
2022-11-21T00:05:23.704Z,996.42
2022-11-21T00:06:23.822Z,996.42
2022-11-21T00:07:23.691Z,996.40
2022-11-21T00:08:23.586Z,996.45
2022-11-21T00:09:23.556Z,996.51
2022-11-21T00:10:23.510Z,996.41
2022-11-21T00:11:23.471Z,996.48
2022-11-21T00:12:23.435Z,996.40
2022-11-21T00:13:23.395Z,996.42
2022-11-21T00:14:23.359Z,996.44
2022-11-21T00:15:23.517Z,996.42
2022-11-21T00:16:23.297Z,996.38
2022-11-21T00:17:23.249Z,996.38
2022-11-21T00:18:23.233Z,996.45
2022-11-21T00:19:23.170Z,996.34
2022-11-21T00:20:23.132Z,996.41
2022-11-21T00:21:23.098Z,996.40
2022-11-21T00:22:23.058Z,996.33
2022-11-21T00:23:23.023Z,996.40
2022-11-21T00:24:22.981Z,996.41
2022-11-21T00:25:22.950Z,996.35
2022-11-21T00:26:22.925Z,996.36
2022-11-21T00:27:22.873Z,996.37
2022-11-21T00:28:22.880Z,996.32
2022-11-21T00:29:22.799Z,996.44
2022-11-21T00:30:22.762Z,996.34
2022-11-21T00:31:22.771Z,996.34
2022-11-21T00:32:22.678Z,996.34
2022-11-21T00:33:22.645Z,996.32
2022-11-21T00:34:22.604Z,996.29
2022-11-21T00:35:22.573Z,996.23
2022-11-21T00:36:22.575Z,996.28
2022-11-21T00:37:22.489Z,996.23
2022-11-21T00:38:22.449Z,996.33
2022-11-21T00:39:22.425Z,996.43
2022-11-21T00:40:22.375Z,996.26
2022-11-21T00:41:22.337Z,996.20
2022-11-21T00:42:22.304Z,996.22
2022-11-21T00:43:22.267Z,996.23
2022-11-21T00:44:22.224Z,996.34
2022-11-21T00:45:24.523Z,996.18
2022-11-21T00:46:22.152Z,996.26
2022-11-21T00:47:22.113Z,996.26
2022-11-21T00:48:22.079Z,996.21
2022-11-21T00:49:22.036Z,996.21
2022-11-21T00:50:21.997Z,996.24
2022-11-21T00:51:21.963Z,996.22
2022-11-21T00:52:21.968Z,996.16
2022-11-21T00:53:21.887Z,996.23
2022-11-21T00:54:21.848Z,996.27
2022-11-21T00:55:21.831Z,996.19
2022-11-21T00:56:21.773Z,996.24
2022-11-21T00:57:21.739Z,996.15
2022-11-21T00:58:21.705Z,996.13
2022-11-21T00:59:21.659Z,996.21
2022-11-21T01:00:21.622Z,996.30
2022-11-21T01:01:21.598Z,996.16
2022-11-21T01:02:21.547Z,996.25
2022-11-21T01:03:21.507Z,996.26
2022-11-21T01:04:21.472Z,996.21
2022-11-21T01:05:21.429Z,996.22
2022-11-21T01:06:21.405Z,996.24
2022-11-21T01:07:21.403Z,996.22
2022-11-21T01:08:21.321Z,996.23
2022-11-21T01:09:21.284Z,996.16
2022-11-21T01:10:21.238Z,996.30
2022-11-21T01:11:21.205Z,996.20
2022-11-21T01:12:21.193Z,996.23
2022-11-21T01:13:21.128Z,996.35
2022-11-21T01:14:21.089Z,996.33
2022-11-21T01:15:21.054Z,996.23
2022-11-21T01:16:21.014Z,996.23
2022-11-21T01:17:20.976Z,996.31
2022-11-21T01:18:20.937Z,996.30
2022-11-21T01:19:20.900Z,996.26
2022-11-21T01:20:20.884Z,996.36
2022-11-21T01:21:20.834Z,996.24
2022-11-21T01:22:20.812Z,996.27
2022-11-21T01:23:20.753Z,996.27
2022-11-21T01:24:20.709Z,996.33
2022-11-21T01:25:20.753Z,996.20
2022-11-21T01:26:20.640Z,996.15
2022-11-21T01:27:20.637Z,996.17
2022-11-21T01:28:20.560Z,996.19
2022-11-21T01:29:20.527Z,996.14
2022-11-21T01:30:20.487Z,996.16
2022-11-21T01:31:20.453Z,996.14
2022-11-21T01:32:20.416Z,996.16
2022-11-21T01:33:20.368Z,996.11
2022-11-21T01:34:20.331Z,996.18
2022-11-21T01:35:20.291Z,996.19
2022-11-21T01:36:20.255Z,996.23
2022-11-21T01:37:20.219Z,996.18
2022-11-21T01:38:20.177Z,996.21
2022-11-21T01:39:20.142Z,996.28
2022-11-21T01:40:20.154Z,996.23
2022-11-21T01:41:20.067Z,996.24
2022-11-21T01:42:20.026Z,996.33
2022-11-21T01:43:19.990Z,996.33
2022-11-21T01:44:19.984Z,996.33
2022-11-21T01:45:19.919Z,996.36
2022-11-21T01:46:19.900Z,996.34
2022-11-21T01:47:19.836Z,996.41
2022-11-21T01:48:19.804Z,996.35
2022-11-21T01:49:19.759Z,996.33
2022-11-21T01:50:19.729Z,996.33
2022-11-21T01:51:19.688Z,996.36
2022-11-21T01:52:19.656Z,996.40
2022-11-21T01:53:19.616Z,996.42
2022-11-21T01:54:19.574Z,996.45
2022-11-21T01:55:19.542Z,996.39
2022-11-21T01:56:19.495Z,996.45
2022-11-21T01:57:19.489Z,996.48
2022-11-21T01:58:19.422Z,996.50
2022-11-21T01:59:19.385Z,996.50
2022-11-21T02:00:19.347Z,996.53
2022-11-21T02:01:19.403Z,996.54
2022-11-21T02:02:19.269Z,996.54
2022-11-21T02:03:19.243Z,996.53
2022-11-21T02:04:19.198Z,996.56
2022-11-21T02:05:19.444Z,996.55
2022-11-21T02:06:19.122Z,996.52
2022-11-21T02:07:19.158Z,996.50
2022-11-21T02:08:19.054Z,996.57
2022-11-21T02:09:19.003Z,996.51
2022-11-21T02:10:18.967Z,996.49
2022-11-21T02:11:18.965Z,996.45
2022-11-21T02:12:18.892Z,996.51
2022-11-21T02:13:18.860Z,996.52
2022-11-21T02:14:18.823Z,996.52
2022-11-21T02:15:18.777Z,996.54
2022-11-21T02:16:18.746Z,996.55
2022-11-21T02:17:18.740Z,996.54
2022-11-21T02:18:18.663Z,996.54
2022-11-21T02:19:18.631Z,996.58
2022-11-21T02:20:18.591Z,996.57
2022-11-21T02:21:18.656Z,996.58
2022-11-21T02:22:18.526Z,996.54
2022-11-21T02:23:18.475Z,996.59
2022-11-21T02:24:18.445Z,996.61
2022-11-21T02:25:18.414Z,996.62
2022-11-21T02:26:18.362Z,996.62
2022-11-21T02:27:18.324Z,996.65
2022-11-21T02:28:18.286Z,996.64
2022-11-21T02:29:18.256Z,996.62
2022-11-21T02:30:18.210Z,996.70
2022-11-21T02:31:18.172Z,996.71
2022-11-21T02:32:18.138Z,996.68
2022-11-21T02:33:18.101Z,996.66
2022-11-21T02:34:18.061Z,996.63
2022-11-21T02:35:18.027Z,996.66
2022-11-21T02:36:18.011Z,996.68
2022-11-21T02:37:17.968Z,996.62
2022-11-21T02:38:17.921Z,996.62
2022-11-21T02:39:17.875Z,996.61
2022-11-21T02:40:17.841Z,996.63
2022-11-21T02:41:17.797Z,996.66
2022-11-21T02:42:17.755Z,996.62
2022-11-21T02:43:17.729Z,996.60
2022-11-21T02:44:17.684Z,996.57
2022-11-21T02:45:17.646Z,996.58
2022-11-21T02:46:17.613Z,996.57
2022-11-21T02:47:17.573Z,996.57
2022-11-21T02:48:17.534Z,996.55
2022-11-21T02:49:17.495Z,996.54
2022-11-21T02:50:17.461Z,996.56
2022-11-21T02:51:17.420Z,996.53
2022-11-21T02:52:17.380Z,996.52
2022-11-21T02:53:17.350Z,996.55
2022-11-21T02:54:17.306Z,996.57
2022-11-21T02:55:17.275Z,996.57
2022-11-21T02:56:17.235Z,996.59
2022-11-21T02:57:17.194Z,996.57
2022-11-21T02:58:17.155Z,996.58
2022-11-21T02:59:17.117Z,996.63
2022-11-21T03:00:17.078Z,996.63
2022-11-21T03:01:17.119Z,996.64
2022-11-21T03:02:17.017Z,996.70
2022-11-21T03:03:16.965Z,996.69
2022-11-21T03:04:16.926Z,996.71
2022-11-21T03:05:16.899Z,996.71
2022-11-21T03:06:16.845Z,996.69
2022-11-21T03:07:16.876Z,996.74
2022-11-21T03:08:16.773Z,996.73
2022-11-21T03:09:16.736Z,996.70
2022-11-21T03:10:16.700Z,996.75
2022-11-21T03:11:16.661Z,996.74
2022-11-21T03:12:16.625Z,996.78
2022-11-21T03:13:16.584Z,996.72
2022-11-21T03:14:16.542Z,996.73
2022-11-21T03:15:16.506Z,996.71
2022-11-21T03:16:16.472Z,996.76
2022-11-21T03:17:16.460Z,996.76
2022-11-21T03:18:16.394Z,996.74
2022-11-21T03:19:16.354Z,996.72
2022-11-21T03:20:16.317Z,996.78
2022-11-21T03:21:16.283Z,996.75
2022-11-21T03:22:16.249Z,996.80
2022-11-21T03:23:16.210Z,996.74
2022-11-21T03:24:16.166Z,996.74
2022-11-21T03:25:16.126Z,996.70
2022-11-21T03:26:16.091Z,996.73
2022-11-21T03:27:16.085Z,996.70
2022-11-21T03:28:16.015Z,996.67
2022-11-21T03:29:15.980Z,996.71
2022-11-21T03:30:15.942Z,996.65
2022-11-21T03:31:15.907Z,996.69
2022-11-21T03:32:15.869Z,996.68
2022-11-21T03:33:15.823Z,996.66
2022-11-21T03:34:15.808Z,996.65
2022-11-21T03:35:15.751Z,996.66
2022-11-21T03:36:15.714Z,996.62
2022-11-21T03:37:15.752Z,996.62
2022-11-21T03:38:15.685Z,996.64
2022-11-21T03:39:15.598Z,996.65
2022-11-21T03:40:15.586Z,996.60
2022-11-21T03:41:15.551Z,996.60
2022-11-21T03:42:15.482Z,996.61
2022-11-21T03:43:15.445Z,996.61
2022-11-21T03:44:15.411Z,996.61
2022-11-21T03:45:15.370Z,996.67
2022-11-21T03:46:15.332Z,996.67
2022-11-21T03:47:15.297Z,996.68
2022-11-21T03:48:15.255Z,996.63
2022-11-21T03:49:15.214Z,996.70
2022-11-21T03:50:15.181Z,996.64
2022-11-21T03:51:15.140Z,996.64
2022-11-21T03:52:15.134Z,996.64
2022-11-21T03:53:15.073Z,996.60
2022-11-21T03:54:15.033Z,996.60
2022-11-21T03:55:14.992Z,996.67
2022-11-21T03:56:14.955Z,996.63
2022-11-21T03:57:14.926Z,996.70
2022-11-21T03:58:14.878Z,996.69
2022-11-21T03:59:14.892Z,996.68
2022-11-21T04:00:14.803Z,996.69
2022-11-21T04:01:14.838Z,996.67
2022-11-21T04:02:14.730Z,996.72
2022-11-21T04:03:14.683Z,996.75
2022-11-21T04:04:14.652Z,996.75
2022-11-21T04:05:15.387Z,996.73
2022-11-21T04:06:14.571Z,996.70
2022-11-21T04:07:14.564Z,996.68
2022-11-21T04:08:14.515Z,996.66
2022-11-21T04:09:14.461Z,996.66
2022-11-21T04:10:14.520Z,996.65
2022-11-21T04:11:14.379Z,996.70
2022-11-21T04:12:14.346Z,996.65
2022-11-21T04:13:14.313Z,996.64
2022-11-21T04:14:14.264Z,996.63
2022-11-21T04:15:14.285Z,996.60
2022-11-21T04:16:14.190Z,996.60
2022-11-21T04:17:14.165Z,996.61
2022-11-21T04:18:14.118Z,996.63
2022-11-21T04:19:14.155Z,996.58
2022-11-21T04:20:14.041Z,996.60
2022-11-21T04:21:14.004Z,996.62
2022-11-21T04:22:13.962Z,996.64
2022-11-21T04:23:13.925Z,996.66
2022-11-21T04:24:13.889Z,996.68
2022-11-21T04:25:13.856Z,996.70
2022-11-21T04:26:13.815Z,996.70
2022-11-21T04:27:13.779Z,996.66
2022-11-21T04:28:13.733Z,996.66
2022-11-21T04:29:13.703Z,996.70
2022-11-21T04:30:13.755Z,996.71
2022-11-21T04:31:13.621Z,996.70
2022-11-21T04:32:13.582Z,996.68
2022-11-21T04:33:13.552Z,996.67
2022-11-21T04:34:13.502Z,996.69
2022-11-21T04:35:13.527Z,996.70
2022-11-21T04:36:13.435Z,996.71
2022-11-21T04:37:13.479Z,996.71
2022-11-21T04:38:13.357Z,996.71
2022-11-21T04:39:13.320Z,996.76
2022-11-21T04:40:13.277Z,996.75
2022-11-21T04:41:13.245Z,996.76
2022-11-21T04:42:13.208Z,996.71
2022-11-21T04:43:13.192Z,996.76
2022-11-21T04:44:13.125Z,996.70
2022-11-21T04:45:13.089Z,996.69
2022-11-21T04:46:13.054Z,996.68
2022-11-21T04:47:13.013Z,996.69
2022-11-21T04:48:12.995Z,996.71
2022-11-21T04:49:12.936Z,996.70
2022-11-21T04:50:12.899Z,996.68
2022-11-21T04:51:12.883Z,996.65
2022-11-21T04:52:12.820Z,996.65
2022-11-21T04:53:12.785Z,996.69
2022-11-21T04:54:12.754Z,996.68
2022-11-21T04:55:12.711Z,996.68
2022-11-21T04:56:12.670Z,996.66
2022-11-21T04:57:12.638Z,996.65
2022-11-21T04:58:12.598Z,996.62
2022-11-21T04:59:12.554Z,996.67
2022-11-21T05:00:12.558Z,996.61
2022-11-21T05:01:12.596Z,996.62
2022-11-21T05:02:12.455Z,996.56
2022-11-21T05:03:12.410Z,996.57
2022-11-21T05:04:12.368Z,996.55
2022-11-21T05:05:12.329Z,996.56
2022-11-21T05:06:12.291Z,996.52
2022-11-21T05:07:12.283Z,996.50
2022-11-21T05:08:12.217Z,996.48
2022-11-21T05:09:12.184Z,996.49
2022-11-21T05:10:12.148Z,996.51
2022-11-21T05:11:12.105Z,996.51
2022-11-21T05:12:12.076Z,996.49
2022-11-21T05:13:12.031Z,996.52
2022-11-21T05:14:11.994Z,996.53
2022-11-21T05:15:11.953Z,996.53
2022-11-21T05:16:11.937Z,996.53
2022-11-21T05:17:11.877Z,996.54
2022-11-21T05:18:11.844Z,996.51
2022-11-21T05:19:11.800Z,996.52
2022-11-21T05:20:11.764Z,996.52
2022-11-21T05:21:11.730Z,996.49
2022-11-21T05:22:11.690Z,996.50
2022-11-21T05:23:11.648Z,996.49
2022-11-21T05:24:11.609Z,996.51
2022-11-21T05:25:11.572Z,996.44
2022-11-21T05:26:11.537Z,996.50
2022-11-21T05:27:11.506Z,996.55
2022-11-21T05:28:11.464Z,996.51
2022-11-21T05:29:11.458Z,996.54
2022-11-21T05:30:11.457Z,996.54
2022-11-21T05:31:11.349Z,996.52
2022-11-21T05:32:11.315Z,996.51
2022-11-21T05:33:11.270Z,996.53
2022-11-21T05:34:11.234Z,996.53
2022-11-21T05:35:11.231Z,996.54
2022-11-21T05:36:11.155Z,996.52
2022-11-21T05:37:11.119Z,996.49
2022-11-21T05:38:11.105Z,996.50
2022-11-21T05:39:11.043Z,996.50
2022-11-21T05:40:11.008Z,996.46
2022-11-21T05:41:10.969Z,996.46
2022-11-21T05:42:10.934Z,996.42
2022-11-21T05:43:10.922Z,996.42
2022-11-21T05:44:10.858Z,996.43
2022-11-21T05:45:10.863Z,996.45
2022-11-21T05:46:10.782Z,996.48
2022-11-21T05:47:10.744Z,996.49
2022-11-21T05:48:10.705Z,996.47
2022-11-21T05:49:10.675Z,996.47
2022-11-21T05:50:10.628Z,996.47
2022-11-21T05:51:10.588Z,996.50
2022-11-21T05:52:10.553Z,996.46
2022-11-21T05:53:10.516Z,996.45
2022-11-21T05:54:10.472Z,996.47
2022-11-21T05:55:10.437Z,996.45
2022-11-21T05:56:10.401Z,996.48
2022-11-21T05:57:10.364Z,996.48
2022-11-21T05:58:10.322Z,996.47
2022-11-21T05:59:10.288Z,996.46
2022-11-21T06:00:10.251Z,996.44
2022-11-21T06:01:10.250Z,996.44
2022-11-21T06:02:10.179Z,996.45
2022-11-21T06:03:10.167Z,996.46
2022-11-21T06:04:10.101Z,996.42
2022-11-21T06:05:10.055Z,996.43
2022-11-21T06:06:10.021Z,996.41
2022-11-21T06:07:10.004Z,996.42
2022-11-21T06:08:09.955Z,996.38
2022-11-21T06:09:09.918Z,996.40
2022-11-21T06:10:09.872Z,996.36
2022-11-21T06:11:09.874Z,996.34
2022-11-21T06:12:09.794Z,996.35
2022-11-21T06:13:09.758Z,996.34
2022-11-21T06:14:09.725Z,996.34
2022-11-21T06:15:09.685Z,996.29
2022-11-21T06:16:09.649Z,996.27
2022-11-21T06:17:09.607Z,996.26
2022-11-21T06:18:09.603Z,996.26
2022-11-21T06:19:09.526Z,996.22
2022-11-21T06:20:09.494Z,996.19
2022-11-21T06:21:09.454Z,996.19
2022-11-21T06:22:09.415Z,996.14
2022-11-21T06:23:09.387Z,996.13
2022-11-21T06:24:09.342Z,996.16
2022-11-21T06:25:09.305Z,996.18
2022-11-21T06:26:09.321Z,996.15
2022-11-21T06:27:09.228Z,996.16
2022-11-21T06:28:09.187Z,996.11
2022-11-21T06:29:09.154Z,996.17
2022-11-21T06:30:09.116Z,996.14
2022-11-21T06:31:09.074Z,996.17
2022-11-21T06:32:09.039Z,996.15
2022-11-21T06:33:09.001Z,996.15
2022-11-21T06:34:08.964Z,996.14
2022-11-21T06:35:08.923Z,996.12
2022-11-21T06:36:08.888Z,996.13
2022-11-21T06:37:08.848Z,996.16
2022-11-21T06:38:08.804Z,996.14
2022-11-21T06:39:08.765Z,996.10
2022-11-21T06:40:08.732Z,996.10
2022-11-21T06:41:08.724Z,996.13
2022-11-21T06:42:08.661Z,996.13
2022-11-21T06:43:08.616Z,996.13
2022-11-21T06:44:08.630Z,996.16
2022-11-21T06:45:08.542Z,996.15
2022-11-21T06:46:08.523Z,996.20
2022-11-21T06:47:08.522Z,996.23
2022-11-21T06:48:08.435Z,996.30
2022-11-21T06:49:08.392Z,996.28
2022-11-21T06:50:08.404Z,996.28
2022-11-21T06:51:08.324Z,996.29
2022-11-21T06:52:08.272Z,996.29
2022-11-21T06:53:08.236Z,996.27
2022-11-21T06:54:10.575Z,996.28
2022-11-21T06:55:08.155Z,996.26
2022-11-21T06:56:08.134Z,996.27
2022-11-21T06:57:08.089Z,996.26
2022-11-21T06:58:08.044Z,996.24
2022-11-21T06:59:08.009Z,996.23
2022-11-21T07:00:07.989Z,996.28
2022-11-21T07:01:07.974Z,996.23
2022-11-21T07:02:07.896Z,996.26
2022-11-21T07:03:07.861Z,996.28
2022-11-21T07:04:07.816Z,996.28
2022-11-21T07:05:07.783Z,996.29
2022-11-21T07:06:07.745Z,996.29
2022-11-21T07:07:07.760Z,996.30
2022-11-21T07:08:13.011Z,996.26
2022-11-21T07:10:07.595Z,996.24
2022-11-21T07:11:24.695Z,996.27
2022-11-21T07:12:07.523Z,996.29
2022-11-21T07:13:07.478Z,996.32
2022-11-21T07:14:09.286Z,996.34
2022-11-21T07:15:07.401Z,996.32
2022-11-21T07:16:07.373Z,996.37
2022-11-21T07:17:07.330Z,996.33
2022-11-21T07:18:07.286Z,996.33
2022-11-21T07:19:07.277Z,996.32
2022-11-21T07:20:07.266Z,996.33
2022-11-21T07:21:07.180Z,996.32
2022-11-21T07:22:07.139Z,996.28
2022-11-21T07:23:07.104Z,996.32
2022-11-21T07:24:07.059Z,996.26
2022-11-21T07:25:07.025Z,996.29
2022-11-21T07:26:06.988Z,996.30
2022-11-21T07:27:06.943Z,996.25
2022-11-21T07:28:06.912Z,996.27
2022-11-21T07:29:06.872Z,996.25
2022-11-21T07:30:06.835Z,996.22
2022-11-21T07:31:12.900Z,996.28
2022-11-21T07:32:06.767Z,996.23
2022-11-21T07:33:06.731Z,996.30
2022-11-21T07:34:06.695Z,996.26
2022-11-21T07:35:06.666Z,996.27
2022-11-21T07:36:06.633Z,996.28
2022-11-21T07:37:06.571Z,996.27
2022-11-21T07:38:06.541Z,996.25
2022-11-21T07:39:06.497Z,996.22
2022-11-21T07:40:06.453Z,996.24
2022-11-21T07:41:06.421Z,996.24
2022-11-21T07:42:06.381Z,996.23
2022-11-21T07:43:10.681Z,996.25
2022-11-21T07:44:06.304Z,996.23
2022-11-21T07:45:06.263Z,996.17
2022-11-21T07:46:06.236Z,996.15
2022-11-21T07:47:06.196Z,996.15
2022-11-21T07:48:06.148Z,996.16
2022-11-21T07:49:06.107Z,996.15
2022-11-21T07:50:06.080Z,996.17
2022-11-21T07:51:06.076Z,996.11
2022-11-21T07:52:06.010Z,996.04
2022-11-21T07:53:05.964Z,995.99
2022-11-21T07:54:05.928Z,996.02
2022-11-21T07:55:05.912Z,996.02
2022-11-21T07:56:05.845Z,996.07
2022-11-21T07:57:05.812Z,996.09
2022-11-21T07:58:05.779Z,996.12
2022-11-21T07:59:05.735Z,996.14
2022-11-21T08:00:05.690Z,996.11
2022-11-21T08:01:06.684Z,996.08
2022-11-21T08:02:05.654Z,996.10
2022-11-21T08:03:05.588Z,996.11
2022-11-21T08:04:05.544Z,996.10
2022-11-21T08:05:05.510Z,996.11
2022-11-21T08:06:05.467Z,996.11
2022-11-21T08:07:05.448Z,996.14
2022-11-21T08:08:05.393Z,996.09
2022-11-21T08:09:05.363Z,996.10
2022-11-21T08:10:05.314Z,996.11
2022-11-21T08:11:05.279Z,996.11
2022-11-21T08:12:05.254Z,996.15
2022-11-21T08:13:05.206Z,996.13
2022-11-21T08:14:05.160Z,996.15
2022-11-21T08:15:05.141Z,996.13
2022-11-21T08:16:05.088Z,996.09
2022-11-21T08:17:05.049Z,996.09
2022-11-21T08:18:05.016Z,996.05
2022-11-21T08:19:04.977Z,996.00
2022-11-21T08:20:04.932Z,996.01
2022-11-21T08:21:04.908Z,996.01
2022-11-21T08:22:04.857Z,996.02
2022-11-21T08:23:04.822Z,995.99
2022-11-21T08:24:04.789Z,996.00
2022-11-21T08:25:04.752Z,996.02
2022-11-21T08:26:04.707Z,996.03
2022-11-21T08:27:04.680Z,996.00
2022-11-21T08:28:04.633Z,995.97
2022-11-21T08:29:04.660Z,996.01
2022-11-21T08:30:04.558Z,996.06
2022-11-21T08:31:04.551Z,996.03
2022-11-21T08:32:04.482Z,996.03
2022-11-21T08:33:04.452Z,996.08
2022-11-21T08:34:04.417Z,996.08
2022-11-21T08:35:04.366Z,996.04
2022-11-21T08:36:04.335Z,996.03
2022-11-21T08:37:04.332Z,996.05
2022-11-21T08:38:04.261Z,996.05
2022-11-21T08:39:04.228Z,996.02
2022-11-21T08:40:04.175Z,995.99
2022-11-21T08:41:04.146Z,996.01
2022-11-21T08:42:04.102Z,996.04
2022-11-21T08:43:04.066Z,996.02
2022-11-21T08:44:04.023Z,996.02
2022-11-21T08:45:03.996Z,996.01
2022-11-21T08:46:03.955Z,995.96
2022-11-21T08:47:03.918Z,996.00
2022-11-21T08:48:03.877Z,995.97
2022-11-21T08:49:03.872Z,995.99
2022-11-21T08:50:08.783Z,996.00
2022-11-21T08:51:03.764Z,995.98
2022-11-21T08:52:03.723Z,995.99
2022-11-21T08:53:03.685Z,995.93
2022-11-21T08:54:03.655Z,995.94
2022-11-21T08:55:03.641Z,995.90
2022-11-21T08:56:04.611Z,995.91
2022-11-21T08:57:03.542Z,995.89
2022-11-21T08:58:03.498Z,995.89
2022-11-21T08:59:03.463Z,995.84
2022-11-21T09:00:03.425Z,995.84
2022-11-21T09:01:03.387Z,995.85
2022-11-21T09:02:03.392Z,995.75
2022-11-21T09:03:03.311Z,995.75
2022-11-21T09:04:03.279Z,995.73
2022-11-21T09:05:03.234Z,995.69
2022-11-21T09:06:03.201Z,995.66
2022-11-21T09:07:03.179Z,995.63
2022-11-21T09:08:03.118Z,995.65
2022-11-21T09:09:03.090Z,995.64
2022-11-21T09:10:03.050Z,995.62
2022-11-21T09:11:03.013Z,995.62
2022-11-21T09:12:02.974Z,995.64
2022-11-21T09:13:02.937Z,995.63
2022-11-21T09:14:02.899Z,995.64
2022-11-21T09:15:02.859Z,995.64
2022-11-21T09:16:02.855Z,995.62
2022-11-21T09:17:02.783Z,995.63
2022-11-21T09:18:02.751Z,995.61
2022-11-21T09:19:02.709Z,995.62
2022-11-21T09:20:02.792Z,995.61
2022-11-21T09:21:02.637Z,995.60
2022-11-21T09:22:02.589Z,995.59
2022-11-21T09:23:02.566Z,995.60
2022-11-21T09:24:02.523Z,995.60
2022-11-21T09:25:02.482Z,995.61
2022-11-21T09:26:02.440Z,995.59
2022-11-21T09:27:02.403Z,995.57
2022-11-21T09:28:02.374Z,995.56
2022-11-21T09:29:02.334Z,995.56
2022-11-21T09:30:02.292Z,995.54
2022-11-21T09:31:02.263Z,995.55
2022-11-21T09:32:02.219Z,995.51
2022-11-21T09:33:02.181Z,995.54
2022-11-21T09:34:02.144Z,995.54
2022-11-21T09:35:02.111Z,995.56
2022-11-21T09:36:02.071Z,995.58
2022-11-21T09:37:02.033Z,995.61
2022-11-21T09:38:02.003Z,995.55
2022-11-21T09:39:01.954Z,995.53
2022-11-21T09:40:01.917Z,995.54
2022-11-21T09:41:01.883Z,995.52
2022-11-21T09:42:01.850Z,995.53
2022-11-21T09:43:01.806Z,995.54
2022-11-21T09:44:01.781Z,995.54
2022-11-21T09:45:01.750Z,995.51
2022-11-21T09:46:01.694Z,995.51
2022-11-21T09:47:01.656Z,995.52
2022-11-21T09:48:01.620Z,995.53
2022-11-21T09:49:05.432Z,995.50
2022-11-21T09:50:02.065Z,995.49
2022-11-21T09:51:01.508Z,995.42
2022-11-21T09:52:01.468Z,995.43
2022-11-21T09:53:01.450Z,995.44
2022-11-21T09:54:01.393Z,995.42
2022-11-21T09:55:01.359Z,995.42
2022-11-21T09:56:01.329Z,995.42
2022-11-21T09:57:01.284Z,995.41
2022-11-21T09:58:01.256Z,995.36
2022-11-21T09:59:01.256Z,995.32
2022-11-21T10:00:01.170Z,995.30
2022-11-21T10:01:01.176Z,995.29
2022-11-21T10:02:01.102Z,995.28
2022-11-21T10:03:01.062Z,995.31
2022-11-21T10:04:01.019Z,995.29
2022-11-21T10:05:00.985Z,995.26
2022-11-21T10:06:00.944Z,995.26
2022-11-21T10:07:01.001Z,995.27
2022-11-21T10:08:00.892Z,995.25
2022-11-21T10:09:00.872Z,995.26
2022-11-21T10:10:00.802Z,995.26
2022-11-21T10:11:09.188Z,995.26
2022-11-21T10:12:00.729Z,995.20
2022-11-21T10:13:00.768Z,995.23
2022-11-21T10:14:00.651Z,995.26
2022-11-21T10:15:00.618Z,995.20
2022-11-21T10:16:00.575Z,995.23
2022-11-21T10:17:00.558Z,995.17
2022-11-21T10:18:00.523Z,995.13
2022-11-21T10:19:00.521Z,995.14
2022-11-21T10:20:00.446Z,995.12
2022-11-21T10:21:00.394Z,995.12
2022-11-21T10:22:00.357Z,995.09
2022-11-21T10:23:00.317Z,995.14
2022-11-21T10:24:00.352Z,995.11
2022-11-21T10:25:00.275Z,995.05
2022-11-21T10:26:00.208Z,995.07
2022-11-21T10:27:00.169Z,995.07
2022-11-21T10:28:00.155Z,995.03
2022-11-21T10:29:00.099Z,995.02
2022-11-21T10:30:00.064Z,995.01
2022-11-21T10:31:00.031Z,994.99
2022-11-21T10:31:59.986Z,994.94
2022-11-21T10:32:59.952Z,994.98
2022-11-21T10:33:59.920Z,994.96
2022-11-21T10:34:59.878Z,994.96
2022-11-21T10:35:59.841Z,994.88
2022-11-21T10:36:59.817Z,994.88
2022-11-21T10:37:59.770Z,994.84
2022-11-21T10:38:59.838Z,994.81
2022-11-21T10:39:59.710Z,994.81
2022-11-21T10:40:59.659Z,994.83
2022-11-21T10:41:59.622Z,994.85
2022-11-21T10:42:59.590Z,994.81
2022-11-21T10:43:59.557Z,994.79
2022-11-21T10:44:59.537Z,994.76
2022-11-21T10:45:59.477Z,994.74
2022-11-21T10:46:59.442Z,994.65
2022-11-21T10:48:02.703Z,994.65
2022-11-21T10:48:59.393Z,994.61
2022-11-21T10:49:59.346Z,994.59
2022-11-21T10:50:59.302Z,994.63
2022-11-21T10:51:59.260Z,994.68
2022-11-21T10:52:59.224Z,994.65
2022-11-21T10:54:06.225Z,994.58
2022-11-21T10:54:59.163Z,994.59
2022-11-21T10:55:59.118Z,994.61
2022-11-21T10:56:59.087Z,994.57
2022-11-21T10:57:59.058Z,994.62
2022-11-21T10:58:59.122Z,994.58
2022-11-21T10:59:58.981Z,994.55
2022-11-21T11:00:59.029Z,994.53
2022-11-21T11:01:58.921Z,994.53
2022-11-21T11:02:58.877Z,994.51
2022-11-21T11:04:20.969Z,994.55
2022-11-21T11:04:58.876Z,994.51
2022-11-21T11:05:58.760Z,994.45
2022-11-21T11:06:58.729Z,994.43
2022-11-21T11:07:58.692Z,994.43
2022-11-21T11:08:58.702Z,994.40
2022-11-21T11:09:58.631Z,994.36
2022-11-21T11:10:58.581Z,994.33
2022-11-21T11:11:58.576Z,994.29
2022-11-21T11:13:01.635Z,994.27
2022-11-21T11:13:58.465Z,994.23
2022-11-21T11:14:58.440Z,994.20
2022-11-21T11:15:58.405Z,994.21
2022-11-21T11:16:58.367Z,994.21
2022-11-21T11:17:59.159Z,994.19
2022-11-21T11:18:58.435Z,994.18
2022-11-21T11:19:58.258Z,994.19
2022-11-21T11:20:58.228Z,994.17
2022-11-21T11:21:58.193Z,994.16
2022-11-21T11:22:58.163Z,994.14
2022-11-21T11:23:58.116Z,994.15
2022-11-21T11:25:00.770Z,994.12
2022-11-21T11:25:58.047Z,994.07
2022-11-21T11:26:58.012Z,994.03
2022-11-21T11:27:57.973Z,994.06
2022-11-21T11:28:58.040Z,994.06
2022-11-21T11:29:57.909Z,994.01
2022-11-21T11:30:59.128Z,994.00
2022-11-21T11:31:57.845Z,993.97
2022-11-21T11:32:57.800Z,993.95
2022-11-21T11:33:57.758Z,993.95
2022-11-21T11:34:57.734Z,993.92
2022-11-21T11:35:57.696Z,993.90
2022-11-21T11:36:57.658Z,993.88
2022-11-21T11:37:57.627Z,993.84
2022-11-21T11:38:57.628Z,993.78
2022-11-21T11:39:57.550Z,993.80
2022-11-21T11:40:57.929Z,993.77
2022-11-21T11:41:57.485Z,993.74
2022-11-21T11:42:57.453Z,993.76
2022-11-21T11:43:57.423Z,993.76
2022-11-21T11:44:57.387Z,993.70
2022-11-21T11:45:57.344Z,993.71
2022-11-21T11:46:57.320Z,993.70
2022-11-21T11:47:57.308Z,993.72
2022-11-21T11:49:19.311Z,993.71
2022-11-21T11:49:57.209Z,993.69
2022-11-21T11:50:58.008Z,993.65
2022-11-21T11:51:57.165Z,993.61
2022-11-21T11:52:57.165Z,993.58
2022-11-21T11:54:01.009Z,993.56
2022-11-21T11:54:57.029Z,993.54
2022-11-21T11:55:56.999Z,993.52
2022-11-21T11:56:56.972Z,993.52
2022-11-21T11:57:56.926Z,993.51
2022-11-21T11:58:56.898Z,993.49
2022-11-21T11:59:56.861Z,993.42
2022-11-21T12:00:56.832Z,993.44
2022-11-21T12:01:56.852Z,993.43
2022-11-21T12:02:56.757Z,993.38
2022-11-21T12:03:58.248Z,993.42
2022-11-21T12:04:56.686Z,993.42
2022-11-21T12:05:56.668Z,993.45
2022-11-21T12:08:56.766Z,993.41
2022-11-21T12:09:56.520Z,993.41
2022-11-21T12:10:56.478Z,993.40
2022-11-21T12:11:56.436Z,993.36
2022-11-21T12:12:56.405Z,993.36
2022-11-21T12:13:56.370Z,993.36
2022-11-21T12:14:56.341Z,993.31
2022-11-21T12:16:03.271Z,993.29
2022-11-21T12:16:56.263Z,993.27
2022-11-21T12:17:56.225Z,993.24
2022-11-21T12:18:56.193Z,993.24
2022-11-21T12:19:56.158Z,993.18
2022-11-21T12:20:56.124Z,993.12
2022-11-21T12:21:56.084Z,993.14
2022-11-21T12:22:56.054Z,993.08
2022-11-21T12:23:56.022Z,993.12
2022-11-21T12:24:55.994Z,993.06
2022-11-21T12:25:55.950Z,993.06
2022-11-21T12:26:55.926Z,993.06
2022-11-21T12:27:55.876Z,993.02
2022-11-21T12:28:55.841Z,993.02
2022-11-21T12:29:55.808Z,993.02
2022-11-21T12:30:55.786Z,993.03